Time;durP1;ratioP1;P1;durP2;ratioP2;P2;SDS_P1;SDS_P2;PMS_P1;PMS_P2;Temp;Humidity;BMP_temperature;BMP_pressure;BME280_temperature;BME280_humidity;BME280_pressure;Samples;Min_cycle;Max_cycle;Signal;HPM_P1;HPM_P2
2023/06/15 00:02:24;;;;;;;4.30;2.97;;;21.60;44.30;;;24.13;34.59;101907.63;5052334;28;20670;-61
2023/06/15 00:04:51;;;;;;;4.70;3.00;;;21.50;44.50;;;24.10;34.66;101901.91;5056146;28;20629;-62
2023/06/15 00:07:18;;;;;;;3.30;3.00;;;21.40;44.70;;;24.08;34.69;101901.31;5056309;28;20689;-61
2023/06/15 00:09:47;;;;;;;3.33;2.77;;;21.40;44.80;;;24.07;34.64;101908.56;5056773;28;20288;-60
2023/06/15 00:12:14;;;;;;;2.80;2.60;;;21.40;44.80;;;24.06;34.75;101895.28;5056541;28;20747;-61
2023/06/15 00:14:41;;;;;;;4.47;3.57;;;21.40;44.90;;;24.06;34.68;101906.91;5054361;28;20248;-62
2023/06/15 00:17:08;;;;;;;7.20;3.10;;;21.40;45.00;;;24.11;34.85;101903.53;5056651;28;20190;-60
2023/06/15 00:19:36;;;;;;;3.73;2.97;;;21.40;44.90;;;24.13;34.74;101901.41;5056575;28;20201;-60
2023/06/15 00:22:04;;;;;;;4.23;2.93;;;21.40;45.00;;;24.14;34.63;101903.88;5041778;28;20195;-62
2023/06/15 00:24:31;;;;;;;3.83;2.80;;;21.40;45.00;;;24.13;34.55;101910.31;5035948;28;20333;-60
2023/06/15 00:26:59;;;;;;;4.80;3.23;;;21.50;45.00;;;24.14;34.67;101903.88;5036513;28;20198;-60
2023/06/15 00:29:26;;;;;;;4.80;2.93;;;21.40;44.90;;;24.11;34.61;101898.97;5037242;28;20919;-60
2023/06/15 00:31:53;;;;;;;4.10;2.97;;;21.40;44.90;;;24.09;34.66;101906.44;5036288;28;20281;-60
2023/06/15 00:34:20;;;;;;;6.07;3.10;;;21.40;44.90;;;24.08;34.68;101907.50;5035623;28;20195;-60
2023/06/15 00:36:47;;;;;;;7.27;2.63;;;21.40;45.50;;;24.09;34.60;101902.94;5036015;28;20203;-59
2023/06/15 00:39:14;;;;;;;4.07;2.97;;;21.40;44.80;;;24.09;34.43;101903.75;5035917;28;20270;-60
2023/06/15 00:41:42;;;;;;;3.63;2.70;;;21.40;44.70;;;24.11;34.31;101906.22;5050877;28;20678;-58
2023/06/15 00:44:11;;;;;;;4.33;2.87;;;21.40;44.50;;;24.08;34.33;101904.00;5055357;28;20204;-60
2023/06/15 00:46:39;;;;;;;2.93;2.73;;;21.40;44.60;;;24.07;34.27;101903.19;5043698;28;20214;-59
2023/06/15 00:49:07;;;;;;;6.30;2.90;;;21.40;44.60;;;24.05;34.42;101899.88;5035924;28;20191;-60
2023/06/15 00:51:41;;;;;;;2.67;2.47;;;21.30;44.80;;;24.04;34.47;101911.69;5035660;28;20293;-62
2023/06/15 00:54:11;;;;;;;4.97;2.60;;;21.30;44.80;;;24.04;34.60;101911.69;5047204;28;20251;-61
2023/06/15 00:56:39;;;;;;;4.20;2.80;;;21.30;44.80;;;24.03;34.48;101907.34;5055896;28;20194;-60
2023/06/15 00:59:06;;;;;;;3.90;2.40;;;21.30;44.80;;;24.04;34.38;101909.00;5055877;28;20197;-60
2023/06/15 01:01:34;;;;;;;5.30;3.30;;;21.40;44.80;;;24.03;34.48;101912.72;5055070;28;20633;-62
2023/06/15 01:04:01;;;;;;;4.17;2.87;;;21.30;44.80;;;24.01;34.31;101909.47;5047787;28;20396;-60
2023/06/15 01:06:31;;;;;;;3.60;3.00;;;21.30;44.40;;;23.97;34.19;101908.28;5055567;28;20319;-62
2023/06/15 01:09:01;;;;;;;4.00;2.73;;;21.30;44.30;;;23.88;34.17;101915.09;5054780;28;20190;-60
2023/06/15 01:11:31;;;;;;;5.80;2.97;;;21.20;45.00;;;23.78;34.41;101914.00;5055277;28;20209;-60
2023/06/15 01:13:59;;;;;;;3.43;3.13;;;21.10;44.50;;;23.71;34.63;101919.50;5055103;28;20194;-59
2023/06/15 01:16:37;;;;;;;5.57;3.00;;;21.00;44.90;;;23.63;34.67;101911.78;5055535;28;21011;-59
2023/06/15 01:19:13;;;;;;;4.33;2.90;;;21.00;45.00;;;23.56;34.62;101913.75;5053741;28;20189;-60
2023/06/15 01:21:41;;;;;;;3.07;2.77;;;20.90;44.90;;;23.46;34.99;101911.63;5044642;28;20213;-58
2023/06/15 01:24:23;;;;;;;6.37;3.00;;;20.80;44.90;;;23.36;35.21;101906.00;5035556;28;20214;-60
2023/06/15 01:26:53;;;;;;;3.77;2.87;;;20.80;45.50;;;23.36;35.30;101907.88;5035442;28;20199;-60
2023/06/15 01:29:21;;;;;;;3.47;3.17;;;20.70;45.70;;;23.37;35.28;101909.50;5035985;28;20269;-60
2023/06/15 01:31:52;;;;;;;4.73;3.00;;;20.70;46.30;;;23.37;35.51;101906.81;5035025;28;20270;-61
2023/06/15 01:34:19;;;;;;;3.23;2.77;;;20.70;45.40;;;23.34;35.19;101896.50;5035917;28;20195;-60
2023/06/15 01:36:46;;;;;;;3.23;2.67;;;20.70;45.80;;;23.32;35.36;101901.31;5035278;28;20203;-59
2023/06/15 01:39:13;;;;;;;3.83;2.90;;;20.60;45.80;;;23.33;35.67;101895.69;5035187;28;20196;-60
2023/06/15 01:41:40;;;;;;;4.23;3.03;;;20.60;45.80;;;23.34;35.52;101897.31;5049878;28;20201;-61
2023/06/15 01:44:10;;;;;;;3.23;2.83;;;20.70;46.10;;;23.31;35.67;101896.97;5054380;28;20228;-61
2023/06/15 01:46:38;;;;;;;5.13;2.90;;;20.70;46.20;;;23.30;35.52;101895.31;5055355;28;20666;-61
2023/06/15 01:49:05;;;;;;;4.30;2.93;;;20.60;46.00;;;23.26;35.62;101896.81;5053774;28;20248;-60
2023/06/15 01:51:32;;;;;;;3.17;2.87;;;20.60;45.90;;;23.25;35.51;101892.53;5050210;28;20288;-58
2023/06/15 01:54:00;;;;;;;3.83;3.20;;;20.60;45.90;;;23.22;35.25;101896.47;5054718;28;20194;-61
2023/06/15 01:56:27;;;;;;;3.50;3.00;;;20.60;46.10;;;23.22;35.52;101898.34;5055187;28;20209;-59
2023/06/15 01:58:54;;;;;;;3.80;3.40;;;20.60;46.00;;;23.20;35.35;101895.06;5054921;28;20194;-60
2023/06/15 02:01:22;;;;;;;4.90;3.23;;;20.50;45.90;;;23.18;35.52;101903.34;5054417;28;20269;-60
2023/06/15 02:03:53;;;;;;;6.23;5.10;;;20.60;46.00;;;23.16;35.42;101899.25;5054457;28;20566;-60
2023/06/15 02:06:20;;;;;;;6.20;3.57;;;20.60;46.00;;;23.15;35.44;101897.63;5049000;28;20223;-61
2023/06/15 02:08:47;;;;;;;6.33;3.57;;;20.50;45.90;;;23.12;35.61;101898.91;5034669;28;20634;-60
2023/06/15 02:11:15;;;;;;;5.33;3.33;;;20.50;46.10;;;23.09;35.49;101901.22;5034454;28;20205;-61
2023/06/15 02:13:42;;;;;;;7.10;3.47;;;20.50;46.10;;;23.05;35.52;101897.34;5034245;28;20191;-60
2023/06/15 02:16:09;;;;;;;4.33;3.03;;;20.40;46.10;;;22.97;35.73;101889.59;5052912;28;20228;-58
2023/06/15 02:18:38;;;;;;;5.43;3.20;;;20.30;46.10;;;22.89;35.77;101896.94;5052807;28;20204;-59
2023/06/15 02:21:05;;;;;;;4.20;2.90;;;20.30;46.50;;;22.83;36.04;101899.72;5033774;28;20222;-61
2023/06/15 02:23:32;;;;;;;4.17;3.27;;;20.20;46.60;;;22.79;36.07;101888.63;5034849;28;20233;-58
2023/06/15 02:25:59;;;;;;;4.93;3.30;;;20.10;46.80;;;22.79;36.21;101888.63;5033992;28;20659;-59
2023/06/15 02:28:26;;;;;;;4.70;3.83;;;20.10;47.00;;;22.80;36.12;101895.59;5033826;28;20204;-59
2023/06/15 02:30:53;;;;;;;6.13;3.67;;;20.10;46.90;;;22.79;36.33;101903.91;5033895;28;20309;-60
2023/06/15 02:33:20;;;;;;;6.40;3.00;;;20.10;47.10;;;22.75;36.02;101902.69;5033489;28;20190;-59
2023/06/15 02:35:48;;;;;;;3.80;2.50;;;20.00;46.80;;;22.68;35.44;101896.59;5033752;28;20234;-60
2023/06/15 02:38:15;;;;;;;4.80;3.20;;;20.00;46.70;;;22.61;36.01;101894.00;5037711;28;20198;-58
2023/06/15 02:40:42;;;;;;;3.83;2.70;;;19.90;47.00;;;22.54;35.75;101901.28;5053853;28;20371;-59
2023/06/15 02:43:09;;;;;;;3.83;2.70;;;19.90;46.80;;;22.46;36.29;101903.44;5053682;28;20198;-59
2023/06/15 02:45:37;;;;;;;5.10;3.00;;;19.80;47.00;;;22.36;36.24;101895.94;5050320;28;20222;-58
2023/06/15 02:48:05;;;;;;;4.00;3.00;;;19.70;47.00;;;22.27;36.32;101906.13;5034124;28;20294;-61
2023/06/15 02:50:32;;;;;;;4.00;3.40;;;19.60;47.00;;;22.19;36.25;101903.75;5033883;28;20194;-61
2023/06/15 02:53:00;;;;;;;12.00;3.33;;;19.60;47.50;;;22.14;36.53;101900.91;5033464;28;20203;-59
2023/06/15 02:55:27;;;;;;;3.67;3.20;;;19.50;47.70;;;22.13;36.41;101909.19;5033721;28;20285;-59
2023/06/15 02:57:54;;;;;;;4.77;3.63;;;19.40;48.00;;;22.14;36.78;101905.44;5033992;28;20208;-61
2023/06/15 03:00:23;;;;;;;5.43;3.73;;;19.40;48.40;;;22.15;36.90;101907.91;5033960;28;20690;-59
2023/06/15 03:02:52;;;;;;;4.40;3.57;;;19.50;48.50;;;22.20;36.73;101909.94;5052150;28;20617;-61
2023/06/15 03:05:19;;;;;;;4.47;3.93;;;19.50;48.20;;;22.21;36.77;101916.91;5051496;28;20218;-60
2023/06/15 03:07:46;;;;;;;5.87;3.63;;;19.50;48.10;;;22.21;36.46;101917.75;5052967;28;20190;-64
2023/06/15 03:10:15;;;;;;;3.23;3.00;;;19.50;48.00;;;22.22;36.58;101918.56;5053385;28;20281;-59
2023/06/15 03:12:42;;;;;;;4.90;3.23;;;19.50;48.00;;;22.22;36.83;101919.41;5053238;28;20631;-58
2023/06/15 03:15:09;;;;;;;7.60;3.50;;;19.50;48.00;;;22.22;37.01;101923.94;5048649;28;20308;-60
2023/06/15 03:17:39;;;;;;;5.83;3.67;;;19.50;48.10;;;22.21;36.88;101916.91;5033493;28;20256;-59
2023/06/15 03:20:10;;;;;;;5.30;3.20;;;19.50;48.30;;;22.20;36.72;101921.47;5045117;28;20201;-57
2023/06/15 03:22:37;;;;;;;6.37;3.90;;;19.40;48.10;;;22.18;37.24;101920.03;5034151;28;20222;-60
2023/06/15 03:25:05;;;;;;;4.03;3.30;;;19.50;48.50;;;22.19;37.06;101919.00;5033026;28;20218;-60
2023/06/15 03:27:34;;;;;;;3.77;3.30;;;19.50;48.50;;;22.22;37.01;101921.25;5033561;28;20222;-61
2023/06/15 03:30:01;;;;;;;5.13;3.27;;;19.50;48.50;;;22.23;37.17;101922.88;5033442;28;20216;-58
2023/06/15 03:32:29;;;;;;;6.50;3.90;;;19.50;48.50;;;22.24;37.02;101922.69;5034458;28;20602;-60
2023/06/15 03:34:57;;;;;;;4.30;3.47;;;19.50;48.40;;;22.24;36.65;101925.38;5056490;28;20293;-59
2023/06/15 03:37:24;;;;;;;5.13;3.50;;;19.50;48.50;;;22.21;36.74;101933.03;5057169;28;20225;-58
2023/06/15 03:39:51;;;;;;;6.53;3.10;;;19.50;48.50;;;22.23;37.07;101936.28;5057416;28;20280;-57
2023/06/15 03:42:18;;;;;;;3.60;3.20;;;19.50;48.40;;;22.22;37.18;101935.50;5044119;28;20216;-60
2023/06/15 03:44:47;;;;;;;7.03;3.40;;;19.50;48.50;;;22.25;37.07;101935.03;5056403;28;20615;-60
2023/06/15 03:47:13;;;;;;;3.80;3.20;;;19.50;48.50;;;22.30;36.86;101941.63;5045823;28;20289;-62
2023/06/15 03:49:40;;;;;;;4.93;3.13;;;19.50;48.40;;;22.32;36.68;101940.34;5036945;28;20269;-59
2023/06/15 03:52:07;;;;;;;10.37;3.70;;;19.60;48.60;;;22.32;36.56;101935.00;5036862;28;20273;-60
2023/06/15 03:54:35;;;;;;;3.77;3.47;;;19.60;48.60;;;22.33;36.72;101933.94;5037038;28;20280;-62
2023/06/15 03:57:03;;;;;;;4.37;3.50;;;19.50;48.40;;;22.29;37.21;101940.78;5038588;28;20229;-59
2023/06/15 03:59:30;;;;;;;3.93;3.10;;;19.60;48.70;;;22.26;36.69;101941.22;5038203;28;20248;-60
2023/06/15 04:01:58;;;;;;;4.07;3.40;;;19.50;48.50;;;22.23;36.81;101936.28;5058040;28;20610;-60
2023/06/15 04:04:25;;;;;;;3.87;3.43;;;19.50;48.80;;;22.22;36.97;101940.03;5057504;28;20320;-60
2023/06/15 04:06:53;;;;;;;4.10;3.40;;;19.50;48.90;;;22.25;36.99;101942.25;5057872;28;20218;-60
2023/06/15 04:09:20;;;;;;;5.63;3.50;;;19.50;49.10;;;22.28;37.28;101947.19;5059432;28;20268;-59
2023/06/15 04:11:47;;;;;;;6.47;3.40;;;19.50;49.20;;;22.33;37.01;101946.50;5052789;28;20202;-61
2023/06/15 04:14:14;;;;;;;3.93;3.53;;;19.60;49.20;;;22.36;37.28;101946.91;5044366;28;20195;-61
2023/06/15 04:16:41;;;;;;;4.17;3.40;;;19.50;49.10;;;22.38;36.99;101952.03;5053837;28;20276;-61
2023/06/15 04:19:10;;;;;;;4.80;4.03;;;19.50;49.10;;;22.36;36.98;101952.28;5060621;28;20650;-62
2023/06/15 04:21:37;;;;;;;4.77;3.73;;;19.60;49.30;;;22.39;37.39;101946.47;5049028;28;20203;-61
2023/06/15 04:24:05;;;;;;;4.93;4.03;;;19.50;49.40;;;22.39;37.29;101951.00;5039890;28;20190;-61
2023/06/15 04:26:32;;;;;;;5.83;4.57;;;19.50;49.20;;;22.36;37.24;101952.28;5039946;28;20746;-60
2023/06/15 04:29:00;;;;;;;6.17;4.37;;;19.50;49.40;;;22.34;36.92;101946.31;5038322;28;20198;-62
2023/06/15 04:31:30;;;;;;;7.17;4.47;;;19.50;49.40;;;22.33;37.68;101952.72;5036557;28;20229;-61
2023/06/15 04:33:59;;;;;;;4.17;3.47;;;19.50;49.60;;;22.34;37.64;101946.31;5036112;28;20194;-60
2023/06/15 04:36:31;;;;;;;7.43;4.10;;;19.50;49.60;;;22.33;37.25;101950.03;5036198;28;20209;-62
2023/06/15 04:38:59;;;;;;;5.60;3.60;;;19.50;49.80;;;22.34;37.44;101951.69;5046488;28;20194;-61
2023/06/15 04:41:29;;;;;;;4.30;3.70;;;19.50;50.00;;;22.33;37.53;101947.34;5055291;28;20224;-61
2023/06/15 04:43:56;;;;;;;4.73;3.57;;;19.50;50.10;;;22.37;37.45;101945.84;5055095;28;20230;-60
2023/06/15 04:46:23;;;;;;;5.20;3.67;;;19.50;50.20;;;22.43;37.62;101961.06;5055688;28;20225;-59
2023/06/15 04:48:51;;;;;;;6.13;4.23;;;19.60;50.30;;;22.47;37.71;101953.38;5055872;28;20269;-61
2023/06/15 04:51:18;;;;;;;7.20;4.13;;;19.70;50.40;;;22.50;37.98;101953.78;5055621;28;20194;-61
2023/06/15 04:53:47;;;;;;;6.23;4.10;;;19.70;50.40;;;22.56;37.47;101952.88;5055228;28;20248;-60
2023/06/15 04:56:14;;;;;;;6.50;4.20;;;19.70;50.30;;;22.61;37.72;101958.41;5037384;28;20691;-63
2023/06/15 04:58:41;;;;;;;7.27;4.37;;;19.80;50.60;;;22.65;37.25;101951.56;5035456;28;20190;-59
2023/06/15 05:01:08;;;;;;;6.97;3.87;;;19.80;50.40;;;22.67;37.52;101959.41;5040429;28;20186;-59
2023/06/15 05:03:35;;;;;;;5.13;3.77;;;19.80;50.50;;;22.65;37.60;101953.44;5054885;28;20205;-61
2023/06/15 05:06:02;;;;;;;6.50;3.67;;;19.80;50.50;;;22.60;37.95;101954.09;5055148;28;20245;-60
2023/06/15 05:08:29;;;;;;;5.97;3.87;;;19.70;50.80;;;22.61;38.25;101955.72;5054215;28;20193;-61
2023/06/15 05:10:57;;;;;;;4.60;4.07;;;19.70;50.90;;;22.63;38.13;101963.59;5055277;28;20200;-61
2023/06/15 05:13:25;;;;;;;4.27;3.53;;;19.70;51.20;;;22.67;38.13;101962.09;5054937;28;20273;-61
2023/06/15 05:15:53;;;;;;;8.53;3.77;;;19.80;51.20;;;22.71;38.19;101953.34;5037265;28;20703;-61
2023/06/15 05:18:23;;;;;;;5.27;3.83;;;19.80;51.40;;;22.79;37.80;101962.97;5035251;28;20289;-63
2023/06/15 05:20:50;;;;;;;5.07;3.83;;;19.90;51.40;;;22.84;38.09;101958.56;5034316;28;20625;-60
2023/06/15 05:23:19;;;;;;;4.67;3.43;;;19.90;51.40;;;22.89;38.03;101958.69;5050991;28;20198;-61
2023/06/15 05:25:46;;;;;;;5.03;3.50;;;20.00;51.40;;;22.95;38.02;101964.22;5054830;28;20227;-59
2023/06/15 05:28:15;;;;;;;10.43;4.00;;;20.00;51.30;;;23.01;37.81;101960.63;5054433;28;20221;-59
2023/06/15 05:30:42;;;;;;;6.83;4.50;;;20.10;51.40;;;23.07;37.58;101959.72;5054745;28;20618;-61
2023/06/15 05:33:09;;;;;;;7.27;3.47;;;20.20;51.30;;;23.13;37.64;101962.31;5054513;28;20269;-61
2023/06/15 05:35:36;;;;;;;5.43;4.27;;;20.20;51.00;;;23.19;37.66;101961.41;5048527;28;20264;-59
2023/06/15 05:38:03;;;;;;;6.13;3.73;;;20.30;50.90;;;23.23;37.50;101964.47;5034432;28;20229;-61
2023/06/15 05:40:30;;;;;;;3.53;3.20;;;20.40;50.80;;;23.27;37.44;101955.72;5040064;28;20193;-61
2023/06/15 05:42:57;;;;;;;8.77;5.87;;;20.40;50.70;;;23.35;37.27;101963.50;5037523;28;20207;-62
2023/06/15 05:45:26;;;;;;;9.20;6.00;;;20.50;50.60;;;23.40;37.06;101954.75;5034554;28;20329;-61
2023/06/15 05:47:53;;;;;;;6.27;4.30;;;20.50;50.40;;;23.42;37.24;101952.63;5034352;28;20206;-61
2023/06/15 05:50:20;;;;;;;5.33;3.83;;;20.60;50.40;;;23.46;37.44;101953.84;5048753;28;20768;-61
2023/06/15 05:52:47;;;;;;;7.53;4.13;;;20.60;51.10;;;23.50;37.45;101955.00;5053145;28;20243;-64
2023/06/15 05:55:15;;;;;;;4.50;3.73;;;20.60;50.70;;;23.55;37.23;101952.44;5054022;28;20214;-61
2023/06/15 05:57:42;;;;;;;6.50;4.00;;;20.70;50.70;;;23.61;37.44;101948.81;5055285;28;20637;-63
2023/06/15 06:00:11;;;;;;;7.53;6.47;;;20.70;50.80;;;23.71;37.18;101953.66;5053801;28;20275;-64
2023/06/15 06:02:41;;;;;;;7.30;4.20;;;20.70;50.70;;;23.79;36.94;101950.63;5052816;28;20564;-62
2023/06/15 06:05:08;;;;;;;4.07;3.67;;;20.80;50.80;;;23.89;36.82;101954.38;5053967;28;20206;-62
2023/06/15 06:07:35;;;;;;;7.10;4.30;;;20.90;50.50;;;23.99;36.46;101951.09;5053299;28;20300;-60
2023/06/15 06:10:03;;;;;;;10.73;5.37;;;21.00;50.20;;;24.09;36.40;101949.50;5053771;28;20189;-60
2023/06/15 06:12:30;;;;;;;5.83;3.87;;;21.10;49.80;;;24.16;36.23;101950.22;5053673;28;20268;-61
2023/06/15 06:14:56;;;;;;;10.10;4.47;;;21.10;49.80;;;24.22;36.09;101949.25;5052921;28;20296;-61
2023/06/15 06:17:23;;;;;;;13.10;4.67;;;21.20;49.50;;;24.30;36.11;101955.34;5040550;28;20245;-60
2023/06/15 06:20:13;;;;;;;13.13;5.30;;;21.30;49.40;;;24.34;35.47;101945.75;5033882;28;20175;-64
2023/06/15 06:22:41;;;;;;;17.87;3.57;;;21.40;49.10;;;24.42;35.67;101953.47;5033626;28;20286;-60
2023/06/15 06:25:08;;;;;;;13.57;8.20;;;21.50;49.10;;;24.51;35.69;101947.47;5033444;28;20289;-60
2023/06/15 06:27:35;;;;;;;6.23;3.90;;;21.50;49.10;;;24.62;35.59;101948.53;5033335;28;20310;-61
2023/06/15 06:30:03;;;;;;;7.93;3.97;;;21.70;48.70;;;24.72;35.06;101943.34;5037826;28;20189;-61
2023/06/15 06:32:30;;;;;;;7.07;3.90;;;21.80;48.30;;;24.81;34.79;101947.34;5053615;28;20551;-62
2023/06/15 06:34:57;;;;;;;5.63;3.17;;;21.80;48.20;;;24.91;34.55;101942.16;5053203;28;20264;-62
2023/06/15 06:37:26;;;;;;;6.37;4.43;;;21.90;47.60;;;25.00;34.73;101946.09;5053872;28;20194;-63
2023/06/15 06:39:53;;;;;;;11.87;4.93;;;22.00;47.40;;;25.10;34.47;101940.91;5052930;28;20689;-62
2023/06/15 06:42:20;;;;;;;5.03;3.73;;;22.10;47.40;;;25.18;33.91;101945.88;5052979;28;20198;-61
2023/06/15 06:44:47;;;;;;;4.47;3.73;;;22.20;46.80;;;25.25;33.43;101938.47;5051866;28;20272;-58
2023/06/15 06:47:14;;;;;;;3.80;3.30;;;22.30;46.30;;;25.33;33.46;101939.97;5053074;28;20245;-61
2023/06/15 06:49:41;;;;;;;6.30;4.00;;;22.30;45.90;;;25.43;33.64;101930.19;5053271;28;20264;-61
2023/06/15 06:52:08;;;;;;;10.93;3.13;;;22.40;46.10;;;25.54;33.32;101937.41;5052739;28;20519;-61
2023/06/15 06:54:36;;;;;;;7.50;3.10;;;22.50;45.90;;;25.62;33.04;101924.56;5053297;28;20655;-60
2023/06/15 06:57:04;;;;;;;5.93;2.70;;;22.60;45.30;;;25.71;32.94;101933.91;5049888;28;20300;-62
2023/06/15 06:59:31;;;;;;;6.73;3.73;;;22.70;45.30;;;25.79;32.21;101938.91;5033494;28;20273;-62
2023/06/15 07:02:10;;;;;;;13.57;4.20;;;22.80;44.90;;;25.87;32.81;101941.16;5046470;28;20289;-64
2023/06/15 07:04:37;;;;;;;6.30;3.77;;;22.80;45.30;;;25.95;32.51;101932.66;5052389;28;20222;-62
2023/06/15 07:07:05;;;;;;;9.80;7.77;;;23.00;44.10;;;26.02;31.94;101922.50;5035235;28;20268;-64
2023/06/15 07:09:32;;;;;;;5.10;4.60;;;23.00;43.90;;;26.12;32.09;101928.09;5034790;28;20216;-61
2023/06/15 07:12:01;;;;;;;5.80;4.13;;;23.20;43.50;;;26.22;31.62;101928.22;5041382;28;20194;-65
2023/06/15 07:14:29;;;;;;;4.87;4.03;;;23.20;43.50;;;26.36;31.38;101923.28;5040476;28;20283;-64
2023/06/15 07:16:56;;;;;;;5.23;3.83;;;23.30;43.60;;;26.50;31.21;101925.38;5050833;28;20266;-61
2023/06/15 07:19:23;;;;;;;3.93;3.60;;;23.40;43.50;;;26.62;31.37;101923.38;5041581;28;20218;-62
2023/06/15 07:21:50;;;;;;;6.77;3.70;;;23.50;43.70;;;26.73;30.78;101924.28;5035822;28;20233;-61
2023/06/15 07:24:17;;;;;;;5.13;3.90;;;23.70;42.90;;;26.84;30.68;101926.88;5035000;28;20739;-62
2023/06/15 07:26:44;;;;;;;7.13;2.93;;;23.80;42.30;;;26.95;29.81;101917.00;5047475;28;20548;-61
2023/06/15 07:29:12;;;;;;;3.67;2.90;;;23.90;41.50;;;27.06;29.83;101926.03;5053120;28;20232;-63
2023/06/15 07:31:39;;;;;;;4.23;3.40;;;24.00;41.00;;;27.16;29.98;101926.16;5052576;28;20240;-61
2023/06/15 07:34:07;;;;;;;3.50;3.20;;;24.10;41.00;;;27.29;29.62;101931.16;5052477;28;20259;-63
2023/06/15 07:36:34;;;;;;;4.83;3.13;;;24.20;40.80;;;27.41;29.43;101935.34;5048465;28;20234;-61
2023/06/15 07:39:01;;;;;;;5.60;2.50;;;24.30;40.30;;;27.55;28.90;101933.06;5033625;28;20208;-63
2023/06/15 07:41:29;;;;;;;4.60;2.87;;;24.50;39.90;;;27.68;28.29;101935.31;5052514;28;20603;-61
2023/06/15 07:43:56;;;;;;;4.50;2.80;;;24.60;39.00;;;27.75;26.12;101930.50;5045170;28;20216;-64
2023/06/15 07:46:24;;;;;;;6.70;2.70;;;24.70;35.40;;;27.85;27.11;101925.16;5042222;28;20617;-62
2023/06/15 07:48:51;;;;;;;5.00;3.97;;;24.80;36.70;;;27.92;27.07;101933.88;5031706;28;20621;-61
2023/06/15 07:51:18;;;;;;;4.67;3.20;;;24.90;36.80;;;27.97;26.20;101936.63;5033560;28;20222;-62
2023/06/15 07:54:06;;;;;;;4.77;2.90;;;25.00;35.50;;;28.02;26.59;101933.16;5047681;28;20206;-64
2023/06/15 07:56:33;;;;;;;6.67;3.37;;;25.10;35.70;;;28.11;26.34;101931.56;5052822;28;20193;-61
2023/06/15 07:59:00;;;;;;;7.23;5.33;;;25.10;35.30;;;28.14;26.01;101942.72;5051985;28;20237;-62
2023/06/15 08:01:28;;;;;;;3.20;2.90;;;25.20;35.30;;;28.18;25.88;101937.56;5052222;28;20603;-62
2023/06/15 08:03:55;;;;;;;3.30;3.00;;;25.20;34.40;;;28.25;25.71;101934.63;5040843;28;20295;-61
2023/06/15 08:06:22;;;;;;;3.13;2.70;;;25.30;34.50;;;28.34;25.87;101938.47;5043125;28;20267;-61
2023/06/15 08:08:49;;;;;;;3.00;2.70;;;25.30;34.50;;;28.42;25.92;101943.41;5051755;28;20218;-61
2023/06/15 08:11:16;;;;;;;3.23;2.93;;;25.40;34.40;;;28.50;25.41;101934.78;5051849;28;20224;-58
2023/06/15 08:13:44;;;;;;;5.10;3.20;;;25.40;34.10;;;28.63;25.80;101942.44;5042736;28;20198;-60
2023/06/15 08:16:11;;;;;;;3.40;2.73;;;25.50;34.70;;;28.77;24.71;101935.44;5032132;28;20525;-62
2023/06/15 08:18:39;;;;;;;3.40;3.10;;;25.60;33.30;;;29.32;24.03;101938.31;5032295;28;20206;-61
2023/06/15 08:21:21;;;;;;;5.60;3.27;;;25.80;33.00;;;30.47;23.21;101933.06;5036335;28;20190;-64
2023/06/15 08:23:48;;;;;;;4.27;3.03;;;26.10;32.80;;;31.60;22.82;101931.03;5043089;28;20213;-61
2023/06/15 08:26:15;;;;;;;19.17;17.17;;;26.60;33.30;;;32.66;21.71;101932.66;5044729;28;20313;-62
2023/06/15 08:28:42;;;;;;;10.73;6.87;;;27.20;33.00;;;33.82;20.76;101925.41;5049628;28;20224;-62
2023/06/15 08:31:19;;;;;;;5.30;3.53;;;27.90;32.70;;;35.13;19.32;101930.94;5053474;28;20203;-61
2023/06/15 08:33:48;;;;;;;3.80;3.50;;;28.60;30.10;;;36.25;18.23;101933.25;5054987;28;20604;-61
2023/06/15 08:36:15;;;;;;;4.77;3.40;;;29.40;30.00;;;37.28;17.83;101936.13;5051363;28;20214;-63
2023/06/15 08:38:42;;;;;;;7.43;6.40;;;30.10;28.50;;;38.21;16.76;101928.78;5035400;28;20260;-61
2023/06/15 08:41:11;;;;;;;4.00;3.05;;;30.90;28.60;;;38.86;15.06;101933.78;5046358;28;20460;-61
2023/06/15 08:43:41;;;;;;;3.28;2.97;;;31.60;25.20;;;39.38;15.12;101931.38;5054822;28;20209;-61
2023/06/15 08:46:08;;;;;;;4.72;3.35;;;32.20;25.30;;;40.15;14.61;101925.00;5048694;28;20625;-64
2023/06/15 08:48:38;;;;;;;3.85;3.05;;;32.80;24.60;;;40.72;13.89;101933.13;5055225;28;20227;-63
2023/06/15 08:51:09;;;;;;;7.35;3.00;;;33.40;23.80;;;41.42;13.59;101925.25;5039780;28;20529;-61
2023/06/15 08:53:43;;;;;;;3.90;3.20;;;33.90;23.10;;;41.92;13.18;101933.69;5034810;28;20197;-62
2023/06/15 08:56:11;;;;;;;4.68;3.03;;;34.30;22.70;;;42.14;13.27;101933.09;5031472;28;20314;-64
2023/06/15 08:58:39;;;;;;;3.50;3.30;;;34.70;22.40;;;42.34;13.11;101934.75;5036342;28;20281;-65
2023/06/15 09:01:07;;;;;;;4.00;3.60;;;35.00;22.00;;;42.65;12.51;101933.09;5037633;28;20322;-61
2023/06/15 09:03:36;;;;;;;4.38;3.33;;;35.20;21.60;;;42.64;12.25;101928.69;5035558;28;20353;-61
2023/06/15 09:06:04;;;;;;;5.00;2.60;;;35.40;20.90;;;42.64;12.05;101921.19;5034734;28;20301;-61
2023/06/15 09:08:32;;;;;;;3.95;3.03;;;35.60;20.90;;;42.13;12.22;101922.34;5033674;28;20305;-60
2023/06/15 09:11:06;;;;;;;3.13;2.90;;;35.60;20.30;;;41.46;13.08;101926.16;5049910;28;20218;-62
2023/06/15 09:13:33;;;;;;;4.93;3.08;;;35.50;20.90;;;41.22;13.02;101929.84;5046729;28;20281;-60
2023/06/15 09:16:02;;;;;;;4.55;3.70;;;35.40;20.80;;;41.57;13.11;101927.25;5043116;28;20225;-61
2023/06/15 09:18:41;;;;;;;4.43;2.85;;;35.40;21.20;;;42.26;12.71;101933.00;5054457;28;20228;-59
2023/06/15 09:21:12;;;;;;;4.10;3.40;;;35.40;20.90;;;42.98;12.28;101925.88;5047895;28;20286;-60
2023/06/15 09:23:45;;;;;;;4.97;3.45;;;35.70;21.40;;;43.78;12.13;101930.59;5034122;28;20687;-59
2023/06/15 09:26:25;;;;;;;5.03;4.47;;;36.00;21.20;;;44.20;11.45;101930.47;5034253;28;20214;-62
2023/06/15 09:28:55;;;;;;;5.57;3.38;;;36.40;20.50;;;44.34;11.22;101925.94;5044779;28;20229;-60
2023/06/15 09:31:31;;;;;;;4.30;3.40;;;36.60;19.50;;;44.53;10.99;101922.25;5038706;28;20212;-61
2023/06/15 09:34:03;;;;;;;2.63;2.42;;;36.90;19.50;;;44.70;10.78;101926.44;5052804;28;20204;-61
2023/06/15 09:36:38;;;;;;;3.38;3.17;;;37.10;18.80;;;44.83;10.52;101914.75;5054505;28;20576;-59
2023/06/15 09:39:11;;;;;;;3.33;3.05;;;37.30;18.60;;;45.30;9.93;101911.28;5053878;28;20631;-60
2023/06/15 09:41:52;;;;;;;4.18;2.90;;;37.50;18.80;;;45.73;9.72;101918.06;5054168;28;20190;-61
2023/06/15 09:44:21;;;;;;;3.97;3.08;;;37.60;18.30;;;45.77;10.47;101918.88;5053398;28;20205;-61
2023/06/15 09:46:50;;;;;;;5.75;3.05;;;37.80;18.70;;;45.98;10.30;101916.28;5054260;28;20240;-61
2023/06/15 09:49:31;;;;;;;5.22;3.13;;;37.90;18.80;;;46.30;9.77;101914.50;5048528;28;20317;-61
2023/06/15 09:52:00;;;;;;;4.50;3.35;;;38.20;19.10;;;46.57;10.03;101917.06;5051371;28;20193;-61
2023/06/15 09:54:30;;;;;;;4.53;3.53;;;38.30;18.70;;;46.67;9.99;101907.94;5049313;28;20217;-60
2023/06/15 09:57:01;;;;;;;5.57;3.50;;;38.40;18.40;;;46.64;9.75;101903.94;5047895;28;20206;-59
2023/06/15 09:59:28;;;;;;;4.00;3.67;;;38.50;18.50;;;46.89;9.68;101901.25;5039949;28;20748;-59
2023/06/15 10:01:56;;;;;;;3.85;3.55;;;38.70;18.30;;;47.07;9.30;101899.34;5045340;28;20659;-61
2023/06/15 10:04:28;;;;;;;4.82;3.30;;;38.80;18.10;;;47.30;9.26;101905.38;5048884;28;20251;-62
2023/06/15 10:07:03;;;;;;;5.78;3.47;;;38.90;17.60;;;46.86;9.05;101902.03;5033220;28;20186;-59
2023/06/15 10:09:40;;;;;;;5.30;3.42;;;39.10;17.00;;;46.75;9.02;101907.59;5049230;28;20221;-62
2023/06/15 10:12:14;;;;;;;6.72;2.88;;;39.30;17.00;;;46.48;9.00;101900.69;5042554;28;20301;-60
2023/06/15 10:14:51;;;;;;;4.43;3.20;;;39.00;16.90;;;46.67;9.21;101905.16;5062124;28;20244;-60
2023/06/15 10:17:32;;;;;;;5.15;4.03;;;39.00;17.00;;;47.04;8.98;101897.31;5047408;28;20561;-62
2023/06/15 10:20:07;;;;;;;4.35;3.38;;;39.00;17.50;;;47.42;8.76;101902.22;5048942;28;20281;-62